createdAt,value
2018-12-14T00:00:00.456Z,100947.00
2018-12-14T00:00:37.443Z,100944.84
2018-12-14T00:01:14.512Z,100947.53
2018-12-14T00:01:52.465Z,100949.14
2018-12-14T00:02:33.450Z,100954.55
2018-12-14T00:03:10.257Z,100951.59
2018-12-14T00:03:47.288Z,100951.05
2018-12-14T00:04:24.184Z,100951.84
2018-12-14T00:05:00.979Z,100955.08
2018-12-14T00:05:37.930Z,100957.77
2018-12-14T00:06:14.830Z,100959.37
2018-12-14T00:06:51.858Z,100964.21
2018-12-14T00:07:28.719Z,100962.05
2018-12-14T00:08:05.715Z,100967.16
2018-12-14T00:08:42.588Z,100966.35
2018-12-14T00:09:19.412Z,100966.89
2018-12-14T00:09:56.396Z,100967.99
2018-12-14T00:10:33.495Z,100968.52
2018-12-14T00:11:10.913Z,100968.79
2018-12-14T00:11:47.812Z,100970.41
2018-12-14T00:12:24.631Z,100969.59
2018-12-14T00:13:01.429Z,100972.81
2018-12-14T00:13:38.164Z,100972.55
2018-12-14T00:14:15.814Z,100970.92
2018-12-14T00:14:52.694Z,100978.19
2018-12-14T00:15:29.474Z,100977.38
2018-12-14T00:16:06.343Z,100973.87
2018-12-14T00:16:43.337Z,100971.70
2018-12-14T00:17:20.128Z,100982.20
2018-12-14T00:17:56.909Z,100979.30
2018-12-14T00:18:33.891Z,100982.52
2018-12-14T00:19:10.683Z,100986.28
2018-12-14T00:19:47.490Z,100987.36
2018-12-14T00:20:24.393Z,100989.23
2018-12-14T00:21:01.282Z,100987.08
2018-12-14T00:21:38.285Z,100992.45
2018-12-14T00:22:15.256Z,100992.18
2018-12-14T00:22:52.031Z,100995.67
2018-12-14T00:23:28.919Z,100991.90
2018-12-14T00:24:05.831Z,100997.01
2018-12-14T00:24:42.979Z,100993.50
2018-12-14T00:25:19.852Z,100998.10
2018-12-14T00:25:56.711Z,101004.28
2018-12-14T00:26:34.492Z,101006.70
2018-12-14T00:27:11.334Z,101007.23
2018-12-14T00:27:48.487Z,101008.30
2018-12-14T00:28:25.418Z,101009.64
2018-12-14T00:29:02.237Z,101011.25
2018-12-14T00:29:39.033Z,101012.05
2018-12-14T00:30:15.861Z,101016.89
2018-12-14T00:30:52.742Z,101017.42
2018-12-14T00:31:30.639Z,101016.90
2018-12-14T00:32:07.573Z,101023.88
2018-12-14T00:32:44.327Z,101020.37
2018-12-14T00:33:21.291Z,101021.71
2018-12-14T00:33:58.631Z,101024.67
2018-12-14T00:34:36.564Z,101026.27
2018-12-14T00:35:14.375Z,101026.26
2018-12-14T00:35:52.060Z,101029.52
2018-12-14T00:36:28.887Z,101034.09
2018-12-14T00:37:06.142Z,101029.77
2018-12-14T00:37:42.958Z,101032.22
2018-12-14T00:38:19.887Z,101034.63
2018-12-14T00:38:56.692Z,101036.77
2018-12-14T00:39:33.526Z,101034.34
2018-12-14T00:40:10.498Z,101038.65
2018-12-14T00:40:47.333Z,101033.78
2018-12-14T00:41:24.173Z,101034.59
2018-12-14T00:42:01.137Z,101037.55
2018-12-14T00:42:38.065Z,101039.69
2018-12-14T00:43:15.065Z,101041.29
2018-12-14T00:43:51.955Z,101033.47
2018-12-14T00:44:28.785Z,101038.84
2018-12-14T00:45:05.677Z,101039.41
2018-12-14T00:45:42.549Z,101039.66
2018-12-14T00:46:19.299Z,101042.62
2018-12-14T00:46:56.166Z,101043.68
2018-12-14T00:47:34.040Z,101055.80
2018-12-14T00:48:10.948Z,101050.66
2018-12-14T00:48:47.908Z,101052.00
2018-12-14T00:49:24.770Z,101053.07
2018-12-14T00:50:01.770Z,101050.09
2018-12-14T00:50:39.047Z,101049.53
2018-12-14T00:51:15.903Z,101052.76
2018-12-14T00:51:52.733Z,101053.58
2018-12-14T00:52:29.581Z,101049.80
2018-12-14T00:53:06.481Z,101057.59
2018-12-14T00:53:43.453Z,101051.11
2018-12-14T00:54:20.263Z,101047.88
2018-12-14T00:54:57.150Z,101053.54
2018-12-14T00:55:34.151Z,101050.83
2018-12-14T00:56:11.167Z,101051.34
2018-12-14T00:56:48.188Z,101055.92
2018-12-14T00:57:25.127Z,101054.29
2018-12-14T00:58:02.038Z,101055.65
2018-12-14T00:58:38.838Z,101055.37
2018-12-14T00:59:15.662Z,101048.61
2018-12-14T00:59:52.912Z,101062.88
2018-12-14T01:00:29.738Z,101054.50
2018-12-14T01:01:06.571Z,101059.88
2018-12-14T01:01:43.482Z,101060.95
2018-12-14T01:02:24.785Z,101060.13
2018-12-14T01:03:03.580Z,101061.45
2018-12-14T01:03:40.411Z,101065.22
2018-12-14T01:04:17.264Z,101064.95
2018-12-14T01:04:54.208Z,101061.16
2018-12-14T01:05:31.065Z,101067.60
2018-12-14T01:06:07.886Z,101055.98
2018-12-14T01:06:44.703Z,101059.72
2018-12-14T01:07:21.530Z,101064.30
2018-12-14T01:07:58.452Z,101064.81
2018-12-14T01:08:35.430Z,101062.64
2018-12-14T01:09:12.297Z,101067.47
2018-12-14T01:09:49.164Z,101062.62
2018-12-14T01:10:27.024Z,101064.78
2018-12-14T01:11:03.853Z,101059.91
2018-12-14T01:11:40.754Z,101063.91
2018-12-14T01:12:17.679Z,101064.41
2018-12-14T01:12:54.596Z,101057.91
2018-12-14T01:13:31.415Z,101067.57
2018-12-14T01:14:08.420Z,101065.14
2018-12-14T01:14:45.238Z,101067.27
2018-12-14T01:15:22.197Z,101065.08
2018-12-14T01:15:59.165Z,101059.36
2018-12-14T01:16:36.245Z,101062.90
2018-12-14T01:17:13.811Z,101065.31
2018-12-14T01:17:50.778Z,101067.20
2018-12-14T01:18:27.665Z,101060.25
2018-12-14T01:19:04.511Z,101063.47
2018-12-14T01:19:41.379Z,101064.53
2018-12-14T01:20:18.224Z,101064.48
2018-12-14T01:20:54.937Z,101058.73
2018-12-14T01:21:31.823Z,101060.06
2018-12-14T01:22:08.603Z,101060.00
2018-12-14T01:22:45.459Z,101066.73
2018-12-14T01:23:22.369Z,101069.66
2018-12-14T01:23:59.319Z,101070.20
2018-12-14T01:24:36.279Z,101072.59
2018-12-14T01:25:13.203Z,101071.75
2018-12-14T01:25:50.199Z,101069.31
2018-12-14T01:26:27.085Z,101076.01
2018-12-14T01:27:03.905Z,101081.35
2018-12-14T01:27:40.680Z,101076.42
2018-12-14T01:28:17.529Z,101076.94
2018-12-14T01:28:54.535Z,101081.52
2018-12-14T01:29:31.280Z,101080.41
2018-12-14T01:30:08.380Z,101083.34
2018-12-14T01:30:45.243Z,101087.37
2018-12-14T01:31:22.045Z,101089.23
2018-12-14T01:31:58.833Z,101086.75
2018-12-14T01:32:35.703Z,101091.61
2018-12-14T01:33:12.511Z,101080.57
2018-12-14T01:33:49.261Z,101090.78
2018-12-14T01:34:26.087Z,101090.20
2018-12-14T01:35:02.900Z,101094.22
2018-12-14T01:35:39.690Z,101093.70
2018-12-14T01:36:16.665Z,101098.78
2018-12-14T01:36:53.415Z,101096.62
2018-12-14T01:37:30.873Z,101092.05
2018-12-14T01:38:08.336Z,101094.73
2018-12-14T01:38:46.434Z,101097.72
2018-12-14T01:39:23.297Z,101097.76
2018-12-14T01:40:00.171Z,101096.62
2018-12-14T01:40:37.088Z,101094.47
2018-12-14T01:41:14.030Z,101099.80
2018-12-14T01:41:50.948Z,101098.97
2018-12-14T01:42:28.358Z,101102.70
2018-12-14T01:43:05.367Z,101092.72
2018-12-14T01:43:42.241Z,101097.75
2018-12-14T01:44:19.150Z,101096.62
2018-12-14T01:44:55.957Z,101087.41
2018-12-14T01:45:32.856Z,101094.61
2018-12-14T01:46:09.778Z,101097.27
2018-12-14T01:46:46.562Z,101094.52
2018-12-14T01:47:23.450Z,101099.90
2018-12-14T01:48:00.346Z,101090.69
2018-12-14T01:48:37.244Z,101098.25
2018-12-14T01:49:14.118Z,101096.38
2018-12-14T01:49:50.999Z,101099.52
2018-12-14T01:50:27.821Z,101110.27
2018-12-14T01:51:04.623Z,101109.42
2018-12-14T01:51:41.819Z,101117.50
2018-12-14T01:52:18.772Z,101111.78
2018-12-14T01:52:55.737Z,101113.12
2018-12-14T01:53:32.656Z,101118.21
2018-12-14T01:54:09.642Z,101111.14
2018-12-14T01:54:46.591Z,101118.67
2018-12-14T01:55:23.540Z,101119.98
2018-12-14T01:56:00.518Z,101116.44
2018-12-14T01:56:39.432Z,101123.71
2018-12-14T01:57:17.369Z,101118.00
2018-12-14T01:57:54.991Z,101123.62
2018-12-14T01:58:31.860Z,101120.36
2018-12-14T01:59:09.027Z,101122.22
2018-12-14T01:59:45.891Z,101126.19
2018-12-14T02:00:22.811Z,101119.08
2018-12-14T02:00:59.684Z,101118.73
2018-12-14T02:01:36.558Z,101122.80
2018-12-14T02:02:13.375Z,101127.63
2018-12-14T02:02:50.345Z,101117.28
2018-12-14T02:03:27.232Z,101118.08
2018-12-14T02:04:04.637Z,101124.05
2018-12-14T02:04:41.601Z,101125.39
2018-12-14T02:05:18.502Z,101128.81
2018-12-14T02:05:55.227Z,101121.98
2018-12-14T02:06:32.086Z,101130.92
2018-12-14T02:07:08.912Z,101130.77
2018-12-14T02:07:45.883Z,101124.60
2018-12-14T02:08:22.759Z,101130.92
2018-12-14T02:08:59.704Z,101129.70
2018-12-14T02:09:36.596Z,101131.95
2018-12-14T02:10:13.429Z,101131.75
2018-12-14T02:10:50.217Z,101133.45
2018-12-14T02:11:27.548Z,101129.97
2018-12-14T02:12:11.105Z,101132.43
2018-12-14T02:12:43.679Z,101131.37
2018-12-14T02:13:25.253Z,101134.04
2018-12-14T02:14:02.237Z,101130.70
2018-12-14T02:14:39.143Z,101132.00
2018-12-14T02:15:16.088Z,101131.45
2018-12-14T02:15:53.019Z,101129.50
2018-12-14T02:16:29.848Z,101126.11
2018-12-14T02:17:06.798Z,101125.00
2018-12-14T02:17:44.377Z,101130.08
2018-12-14T02:18:21.278Z,101126.52
2018-12-14T02:18:58.184Z,101124.85
2018-12-14T02:19:35.029Z,101122.98
2018-12-14T02:20:11.911Z,101120.27
2018-12-14T02:20:49.081Z,101119.97
2018-12-14T02:21:26.408Z,101119.38
2018-12-14T02:22:04.006Z,101118.77
2018-12-14T02:22:41.442Z,101120.59
2018-12-14T02:23:18.519Z,101119.44
2018-12-14T02:24:00.359Z,101120.19
2018-12-14T02:24:38.752Z,101123.14
2018-12-14T02:25:15.751Z,101120.38
2018-12-14T02:25:54.611Z,101123.89
2018-12-14T02:26:33.148Z,101131.22
2018-12-14T02:27:11.594Z,101129.02
2018-12-14T02:27:48.721Z,101129.77
2018-12-14T02:28:30.840Z,101129.17
2018-12-14T02:29:07.614Z,101130.47
2018-12-14T02:29:44.489Z,101127.45
2018-12-14T02:30:30.459Z,101130.42
2018-12-14T02:31:07.493Z,101129.31
2018-12-14T02:31:44.309Z,101130.91
2018-12-14T02:32:21.195Z,101130.86
2018-12-14T02:32:58.926Z,101132.72
2018-12-14T02:33:35.976Z,101132.97
2018-12-14T02:34:12.770Z,101131.86
2018-12-14T02:34:49.559Z,101126.94
2018-12-14T02:35:26.430Z,101127.99
2018-12-14T02:36:03.273Z,101128.80
2018-12-14T02:36:40.183Z,101127.72
2018-12-14T02:37:17.004Z,101130.00
2018-12-14T02:37:53.887Z,101129.00
2018-12-14T02:38:30.714Z,101124.75
2018-12-14T02:39:08.415Z,101127.01
2018-12-14T02:39:45.343Z,101127.66
2018-12-14T02:40:22.195Z,101125.89
2018-12-14T02:40:59.135Z,101128.37
2018-12-14T02:41:36.099Z,101124.66
2018-12-14T02:42:19.305Z,101130.12
2018-12-14T02:42:52.204Z,101124.58
2018-12-14T02:43:29.533Z,101125.95
2018-12-14T02:44:08.579Z,101131.14
2018-12-14T02:44:45.436Z,101131.18
2018-12-14T02:45:22.266Z,101127.88
2018-12-14T02:45:59.139Z,101125.14
2018-12-14T02:46:36.021Z,101124.34
2018-12-14T02:47:12.892Z,101123.90
2018-12-14T02:47:49.737Z,101125.09
2018-12-14T02:48:26.630Z,101122.72
2018-12-14T02:49:03.534Z,101127.12
2018-12-14T02:49:40.448Z,101122.02
2018-12-14T02:50:17.313Z,101122.06
2018-12-14T02:50:54.186Z,101120.20
2018-12-14T02:51:31.007Z,101114.83
2018-12-14T02:52:07.822Z,101117.28
2018-12-14T02:52:44.711Z,101117.62
2018-12-14T02:53:21.635Z,101125.74
2018-12-14T02:53:58.547Z,101119.48
2018-12-14T02:54:36.281Z,101123.12
2018-12-14T02:55:13.207Z,101119.67
2018-12-14T02:55:50.116Z,101117.02
2018-12-14T02:56:27.020Z,101112.59
2018-12-14T02:57:03.858Z,101115.21
2018-12-14T02:57:40.837Z,101113.05
2018-12-14T02:58:17.757Z,101114.11
2018-12-14T02:58:54.666Z,101111.23
2018-12-14T02:59:31.442Z,101114.02
2018-12-14T03:00:08.671Z,101117.83
2018-12-14T03:00:45.476Z,101116.16
2018-12-14T03:01:22.352Z,101117.56
2018-12-14T03:01:59.227Z,101114.20
2018-12-14T03:02:36.076Z,101113.35
2018-12-14T03:03:12.898Z,101116.41
2018-12-14T03:03:49.768Z,101108.59
2018-12-14T03:04:26.663Z,101115.11
2018-12-14T03:05:03.648Z,101109.44
2018-12-14T03:05:40.434Z,101111.87
2018-12-14T03:06:17.414Z,101111.62
2018-12-14T03:06:54.383Z,101109.16
2018-12-14T03:07:33.019Z,101108.07
2018-12-14T03:08:09.973Z,101112.66
2018-12-14T03:08:46.758Z,101112.94
2018-12-14T03:09:23.578Z,101113.09
2018-12-14T03:10:00.395Z,101112.00
2018-12-14T03:10:37.325Z,101112.84
2018-12-14T03:11:14.099Z,101109.19
2018-12-14T03:11:51.014Z,101115.20
2018-12-14T03:12:27.868Z,101111.69
2018-12-14T03:13:04.726Z,101114.98
2018-12-14T03:13:42.967Z,101102.34
2018-12-14T03:14:19.892Z,101100.38
2018-12-14T03:14:56.711Z,101101.55
2018-12-14T03:15:33.686Z,101104.57
2018-12-14T03:16:10.601Z,101105.81
2018-12-14T03:16:47.628Z,101106.23
2018-12-14T03:17:24.656Z,101102.22
2018-12-14T03:18:01.479Z,101096.44
2018-12-14T03:18:38.325Z,101101.69
2018-12-14T03:19:15.129Z,101099.34
2018-12-14T03:19:52.330Z,101094.13
2018-12-14T03:20:29.182Z,101093.96
2018-12-14T03:21:06.375Z,101091.91
2018-12-14T03:21:43.222Z,101093.53
2018-12-14T03:22:20.084Z,101090.75
2018-12-14T03:22:57.016Z,101090.14
2018-12-14T03:23:33.788Z,101089.95
2018-12-14T03:24:10.594Z,101091.70
2018-12-14T03:24:47.454Z,101089.09
2018-12-14T03:25:24.266Z,101090.31
2018-12-14T03:26:01.129Z,101089.03
2018-12-14T03:26:38.007Z,101088.28
2018-12-14T03:27:14.983Z,101086.48
2018-12-14T03:27:51.791Z,101082.61
2018-12-14T03:28:28.607Z,101087.34
2018-12-14T03:29:05.550Z,101085.03
2018-12-14T03:29:42.366Z,101091.59
2018-12-14T03:30:19.242Z,101085.36
2018-12-14T03:30:56.232Z,101088.13
2018-12-14T03:31:33.140Z,101087.63
2018-12-14T03:32:10.046Z,101089.48
2018-12-14T03:32:47.057Z,101088.73
2018-12-14T03:33:23.949Z,101078.86
2018-12-14T03:34:00.727Z,101082.42
2018-12-14T03:34:37.644Z,101083.86
2018-12-14T03:35:14.417Z,101081.25
2018-12-14T03:35:51.376Z,101079.70
2018-12-14T03:36:28.216Z,101082.00
2018-12-14T03:37:04.943Z,101084.53
2018-12-14T03:37:42.529Z,101080.79
2018-12-14T03:38:19.539Z,101083.20
2018-12-14T03:38:56.390Z,101084.00
2018-12-14T03:39:33.174Z,101080.48
2018-12-14T03:40:10.118Z,101077.39
2018-12-14T03:40:47.098Z,101072.44
2018-12-14T03:41:24.006Z,101078.55
2018-12-14T03:42:00.906Z,101067.77
2018-12-14T03:42:38.054Z,101077.87
2018-12-14T03:43:15.044Z,101073.36
2018-12-14T03:43:51.830Z,101075.31
2018-12-14T03:44:28.651Z,101072.13
2018-12-14T03:45:05.453Z,101070.02
2018-12-14T03:45:42.307Z,101078.25
2018-12-14T03:46:19.263Z,101070.47
2018-12-14T03:46:56.125Z,101075.45
2018-12-14T03:47:32.912Z,101071.83
2018-12-14T03:48:10.357Z,101073.19
2018-12-14T03:48:47.214Z,101078.36
2018-12-14T03:49:24.137Z,101076.75
2018-12-14T03:50:00.940Z,101071.92
2018-12-14T03:50:37.857Z,101073.66
2018-12-14T03:51:15.675Z,101066.63
2018-12-14T03:51:52.478Z,101075.34
2018-12-14T03:52:29.469Z,101076.05
2018-12-14T03:53:06.282Z,101074.04
2018-12-14T03:53:43.100Z,101076.50
2018-12-14T03:54:20.423Z,101070.02
2018-12-14T03:54:57.433Z,101076.25
2018-12-14T03:55:34.272Z,101072.13
2018-12-14T03:56:11.056Z,101073.73
2018-12-14T03:56:47.935Z,101072.39
2018-12-14T03:57:25.032Z,101068.63
2018-12-14T03:58:01.864Z,101068.98
2018-12-14T03:58:38.858Z,101062.01
2018-12-14T03:59:15.751Z,101061.78
2018-12-14T03:59:52.630Z,101063.98
2018-12-14T04:00:29.628Z,101061.58
2018-12-14T04:01:06.576Z,101056.21
2018-12-14T04:01:43.542Z,101057.06
2018-12-14T04:02:20.520Z,101053.86
2018-12-14T04:02:57.385Z,101054.66
2018-12-14T04:03:34.443Z,101054.86
2018-12-14T04:04:11.325Z,101048.58
2018-12-14T04:04:48.238Z,101049.58
2018-12-14T04:05:25.241Z,101054.98
2018-12-14T04:06:02.163Z,101046.56
2018-12-14T04:06:39.516Z,101050.36
2018-12-14T04:07:16.481Z,101047.84
2018-12-14T04:07:53.289Z,101046.19
2018-12-14T04:08:30.186Z,101046.35
2018-12-14T04:09:08.015Z,101046.97
2018-12-14T04:09:44.896Z,101038.52
2018-12-14T04:10:21.941Z,101035.56
2018-12-14T04:10:58.822Z,101041.23
2018-12-14T04:11:35.777Z,101033.09
2018-12-14T04:12:12.608Z,101034.53
2018-12-14T04:12:49.665Z,101034.36
2018-12-14T04:13:26.480Z,101035.26
2018-12-14T04:14:03.287Z,101031.83
2018-12-14T04:14:40.293Z,101036.57
2018-12-14T04:15:17.150Z,101038.84
2018-12-14T04:15:54.116Z,101035.39
2018-12-14T04:16:35.497Z,101035.20
2018-12-14T04:17:12.317Z,101027.92
2018-12-14T04:17:49.266Z,101037.91
2018-12-14T04:18:26.957Z,101031.98
2018-12-14T04:19:04.298Z,101035.28
2018-12-14T04:19:41.130Z,101033.48
2018-12-14T04:20:18.006Z,101035.75
2018-12-14T04:20:54.834Z,101032.27
2018-12-14T04:21:31.712Z,101031.52
2018-12-14T04:22:08.590Z,101028.36
2018-12-14T04:22:45.467Z,101032.45
2018-12-14T04:23:22.328Z,101023.87
2018-12-14T04:23:59.153Z,101023.92
2018-12-14T04:24:36.001Z,101020.97
2018-12-14T04:25:12.891Z,101018.55
2018-12-14T04:25:49.660Z,101018.61
2018-12-14T04:26:26.563Z,101020.57
2018-12-14T04:27:03.469Z,101017.61
2018-12-14T04:27:40.422Z,101021.73
2018-12-14T04:28:17.283Z,101019.32
2018-12-14T04:28:54.192Z,101021.53
2018-12-14T04:29:31.134Z,101017.23
2018-12-14T04:30:08.521Z,101016.79
2018-12-14T04:30:45.407Z,101009.77
2018-12-14T04:31:22.222Z,101011.97
2018-12-14T04:31:59.120Z,101017.69
2018-12-14T04:32:35.990Z,101005.80
2018-12-14T04:33:13.003Z,101006.41
2018-12-14T04:33:49.943Z,101008.88
2018-12-14T04:34:27.742Z,101003.48
2018-12-14T04:35:04.584Z,101008.40
2018-12-14T04:35:41.847Z,101009.85
2018-12-14T04:36:19.947Z,101013.72
2018-12-14T04:36:56.883Z,101017.58
2018-12-14T04:37:33.745Z,101018.22
2018-12-14T04:38:10.665Z,101019.59
2018-12-14T04:38:47.630Z,101020.74
2018-12-14T04:39:24.399Z,101024.59
2018-12-14T04:40:03.100Z,101022.79
2018-12-14T04:40:40.006Z,101019.87
2018-12-14T04:41:16.851Z,101022.33
2018-12-14T04:41:53.757Z,101014.30
2018-12-14T04:42:30.614Z,101019.22
2018-12-14T04:43:07.499Z,101010.19
2018-12-14T04:43:44.325Z,101009.09
2018-12-14T04:44:21.380Z,101012.89
2018-12-14T04:44:58.309Z,101013.23
2018-12-14T04:45:35.072Z,101010.58
2018-12-14T04:46:12.025Z,101014.98
2018-12-14T04:46:48.857Z,101014.55
2018-12-14T04:47:27.153Z,101012.22
2018-12-14T04:48:04.820Z,101009.61
2018-12-14T04:48:41.614Z,101009.17
2018-12-14T04:49:18.515Z,101009.51
2018-12-14T04:49:55.410Z,101001.44
2018-12-14T04:50:32.298Z,101009.84
2018-12-14T04:51:09.179Z,101004.77
2018-12-14T04:51:46.023Z,101003.75
2018-12-14T04:52:22.856Z,101007.84
2018-12-14T04:52:59.767Z,101005.47
2018-12-14T04:53:36.653Z,101012.52
2018-12-14T04:54:13.602Z,101007.70
2018-12-14T04:54:50.523Z,101008.51
2018-12-14T04:55:27.477Z,101012.31
2018-12-14T04:56:04.400Z,101009.09
2018-12-14T04:56:41.160Z,101012.09
2018-12-14T04:57:18.018Z,101006.45
2018-12-14T04:57:54.808Z,101013.22
2018-12-14T04:58:31.686Z,101014.61
2018-12-14T04:59:08.657Z,101015.98
2018-12-14T04:59:45.600Z,101002.83
2018-12-14T05:00:22.521Z,101003.41
2018-12-14T05:00:59.635Z,101023.66
2018-12-14T05:01:36.407Z,101020.69
2018-12-14T05:02:13.245Z,101015.06
2018-12-14T05:02:50.090Z,101015.90
2018-12-14T05:03:26.946Z,101013.80
2018-12-14T05:04:04.059Z,101016.80
2018-12-14T05:04:40.909Z,101011.16
2018-12-14T05:05:17.770Z,101012.26
2018-12-14T05:05:54.857Z,101008.23
2018-12-14T05:06:31.720Z,101010.16
2018-12-14T05:07:09.835Z,101006.40
2018-12-14T05:07:46.739Z,101007.78
2018-12-14T05:08:23.505Z,101002.95
2018-12-14T05:09:00.447Z,100999.73
2018-12-14T05:09:37.376Z,100999.22
2018-12-14T05:10:15.252Z,100987.89
2018-12-14T05:10:52.151Z,100985.19
2018-12-14T05:11:29.035Z,100989.79
2018-12-14T05:12:05.862Z,100986.05
2018-12-14T05:12:42.704Z,100976.60
2018-12-14T05:13:19.696Z,100969.59
2018-12-14T05:13:56.587Z,100972.06
2018-12-14T05:14:33.425Z,100967.20
2018-12-14T05:15:10.479Z,100965.34
2018-12-14T05:15:47.297Z,100969.70
2018-12-14T05:16:24.116Z,100971.89
2018-12-14T05:17:00.946Z,100971.63
2018-12-14T05:17:37.821Z,100970.82
2018-12-14T05:18:14.733Z,100979.46
2018-12-14T05:18:51.515Z,100984.34
2018-12-14T05:19:28.431Z,100979.25
2018-12-14T05:20:05.379Z,100984.39
2018-12-14T05:20:42.231Z,100990.88
2018-12-14T05:21:19.127Z,100986.06
2018-12-14T05:21:56.029Z,100991.45
2018-12-14T05:22:32.941Z,100977.48
2018-12-14T05:23:09.778Z,100983.13
2018-12-14T05:23:46.792Z,100989.33
2018-12-14T05:24:23.659Z,100985.59
2018-12-14T05:25:00.585Z,100981.30
2018-12-14T05:25:37.531Z,100982.67
2018-12-14T05:26:14.256Z,100974.86
2018-12-14T05:26:52.016Z,100968.63
2018-12-14T05:27:28.853Z,100968.38
2018-12-14T05:28:05.711Z,100964.33
2018-12-14T05:28:42.634Z,100967.54
2018-12-14T05:29:19.572Z,100955.40
2018-12-14T05:29:56.655Z,100958.61
2018-12-14T05:30:33.458Z,100953.73
2018-12-14T05:31:10.333Z,100953.73
2018-12-14T05:31:47.206Z,100956.98
2018-12-14T05:32:24.124Z,100953.20
2018-12-14T05:33:00.925Z,100954.80
2018-12-14T05:33:37.839Z,100958.59
2018-12-14T05:34:15.352Z,100956.98
2018-12-14T05:34:52.243Z,100961.30
2018-12-14T05:35:29.201Z,100962.64
2018-12-14T05:36:06.188Z,100964.25
2018-12-14T05:36:43.133Z,100959.66
2018-12-14T05:37:20.030Z,100965.60
2018-12-14T05:37:56.848Z,100956.16
2018-12-14T05:38:35.534Z,100956.96
2018-12-14T05:39:12.594Z,100954.00
2018-12-14T05:39:49.480Z,100944.55
2018-12-14T05:40:26.502Z,100943.77
2018-12-14T05:41:03.469Z,100945.64
2018-12-14T05:41:41.592Z,100941.86
2018-12-14T05:42:18.404Z,100935.91
2018-12-14T05:42:55.391Z,100942.92
2018-12-14T05:43:32.298Z,100927.32
2018-12-14T05:44:09.121Z,100943.75
2018-12-14T05:44:46.242Z,100940.25
2018-12-14T05:45:23.117Z,100942.14
2018-12-14T05:45:59.903Z,100939.20
2018-12-14T05:46:36.807Z,100950.23
2018-12-14T05:47:13.665Z,100947.30
2018-12-14T05:47:50.595Z,100946.78
2018-12-14T05:48:27.518Z,100948.98
2018-12-14T05:49:04.436Z,100953.05
2018-12-14T05:49:41.302Z,100947.70
2018-12-14T05:50:18.127Z,100951.19
2018-12-14T05:50:54.940Z,100946.36
2018-12-14T05:51:31.785Z,100945.55
2018-12-14T05:52:08.550Z,100942.33
2018-12-14T05:52:45.442Z,100941.55
2018-12-14T05:53:22.294Z,100942.37
2018-12-14T05:53:59.203Z,100935.64
2018-12-14T05:54:36.129Z,100930.80
2018-12-14T05:55:13.035Z,100930.80
2018-12-14T05:55:49.967Z,100930.55
2018-12-14T05:56:27.082Z,100932.42
2018-12-14T05:57:04.075Z,100924.90
2018-12-14T05:57:41.019Z,100926.80
2018-12-14T05:58:17.890Z,100922.48
2018-12-14T05:58:54.738Z,100929.77
2018-12-14T05:59:31.620Z,100934.09
2018-12-14T06:00:11.122Z,100924.91
2018-12-14T06:00:47.898Z,100926.55
2018-12-14T06:01:24.764Z,100927.91
2018-12-14T06:02:01.615Z,100927.91
2018-12-14T06:02:38.492Z,100921.16
2018-12-14T06:03:15.347Z,100915.48
2018-12-14T06:03:52.200Z,100916.57
2018-12-14T06:04:29.012Z,100911.17
2018-12-14T06:05:05.864Z,100913.06
2018-12-14T06:05:42.823Z,100907.67
2018-12-14T06:06:19.856Z,100909.28
2018-12-14T06:06:56.638Z,100902.54
2018-12-14T06:07:33.561Z,100894.71
2018-12-14T06:08:10.859Z,100894.97
2018-12-14T06:08:47.760Z,100892.53
2018-12-14T06:09:24.656Z,100890.09
2018-12-14T06:10:01.461Z,100887.92
2018-12-14T06:10:38.307Z,100887.92
2018-12-14T06:11:15.241Z,100891.94
2018-12-14T06:11:52.114Z,100889.79
2018-12-14T06:12:29.143Z,100889.79
2018-12-14T06:13:08.992Z,100889.79
2018-12-14T06:13:45.184Z,100889.25
2018-12-14T06:14:23.806Z,100885.20
2018-12-14T06:15:00.754Z,100887.09
2018-12-14T06:15:37.645Z,100887.64
2018-12-14T06:16:14.480Z,100884.94
2018-12-14T06:16:51.383Z,100879.55
2018-12-14T06:17:28.389Z,100880.59
2018-12-14T06:18:05.394Z,100878.15
2018-12-14T06:18:42.333Z,100878.67
2018-12-14T06:19:19.297Z,100875.69
2018-12-14T06:19:56.093Z,100879.97
2018-12-14T06:20:33.009Z,100875.35
2018-12-14T06:21:09.887Z,100875.58
2018-12-14T06:21:46.780Z,100871.22
2018-12-14T06:22:23.769Z,100870.64
2018-12-14T06:23:00.624Z,100872.77
2018-12-14T06:23:37.493Z,100866.28
2018-12-14T06:24:14.419Z,100863.30
2018-12-14T06:24:51.259Z,100861.38
2018-12-14T06:25:28.294Z,100860.28
2018-12-14T06:26:05.150Z,100855.40
2018-12-14T06:26:41.881Z,100853.22
2018-12-14T06:27:18.787Z,100851.28
2018-12-14T06:27:55.680Z,100847.50
2018-12-14T06:28:32.511Z,100846.92
2018-12-14T06:29:10.917Z,100843.70
2018-12-14T06:29:47.941Z,100840.17
2018-12-14T06:30:25.838Z,100844.47
2018-12-14T06:31:02.675Z,100842.29
2018-12-14T06:31:39.561Z,100839.33
2018-12-14T06:32:16.389Z,100839.05
2018-12-14T06:32:53.263Z,100837.43
2018-12-14T06:33:30.195Z,100835.28
2018-12-14T06:34:07.094Z,100831.74
2018-12-14T06:34:43.928Z,100833.09
2018-12-14T06:35:20.822Z,100830.91
2018-12-14T06:35:57.659Z,100826.31
2018-12-14T06:36:35.741Z,100827.41
2018-12-14T06:37:12.753Z,100820.11
2018-12-14T06:37:49.621Z,100816.02
2018-12-14T06:38:26.433Z,100812.27
2018-12-14T06:39:03.330Z,100819.75
2018-12-14T06:39:40.346Z,100817.34
2018-12-14T06:40:17.208Z,100812.45
2018-12-14T06:40:54.107Z,100814.31
2018-12-14T06:41:31.002Z,100810.77
2018-12-14T06:42:08.112Z,100802.34
2018-12-14T06:42:45.371Z,100799.97
2018-12-14T06:43:25.401Z,100801.79
2018-12-14T06:44:02.426Z,100797.44
2018-12-14T06:44:39.274Z,100798.50
2018-12-14T06:45:16.300Z,100791.49
2018-12-14T06:45:53.212Z,100791.67
2018-12-14T06:46:30.172Z,100791.09
2018-12-14T06:47:06.997Z,100793.20
2018-12-14T06:47:43.952Z,100796.92
2018-12-14T06:48:20.859Z,100785.61
2018-12-14T06:48:57.913Z,100794.17
2018-12-14T06:49:34.731Z,100780.92
2018-12-14T06:50:13.362Z,100788.61
2018-12-14T06:50:50.485Z,100787.25
2018-12-14T06:51:27.368Z,100785.85
2018-12-14T06:52:04.204Z,100783.11
2018-12-14T06:52:41.062Z,100778.00
2018-12-14T06:53:18.002Z,100777.16
2018-12-14T06:53:54.953Z,100784.36
2018-12-14T06:54:31.800Z,100782.17
2018-12-14T06:55:08.764Z,100772.41
2018-12-14T06:55:45.569Z,100777.77
2018-12-14T06:56:23.463Z,100771.77
2018-12-14T06:57:00.294Z,100774.43
2018-12-14T06:57:38.124Z,100774.13
2018-12-14T06:58:15.091Z,100769.83
2018-12-14T06:58:52.040Z,100772.73
2018-12-14T06:59:29.732Z,100772.47
2018-12-14T07:00:07.614Z,100764.38
2018-12-14T07:00:45.218Z,100769.47
2018-12-14T07:01:22.139Z,100767.48
2018-12-14T07:01:58.865Z,100769.08
2018-12-14T07:02:36.774Z,100773.39